Terminal Aerodrome Forecast
Issued by NWS

Home | Current Version | Previous Version | Text Only | Print | Product List | Glossary On
Versions: 1 2 3 4 5 6 7 8 9 10 11 12 13 14
000
FTUS43 KOAX 270949 AAA
TAFSNY
TAF AMD
KSNY 270949Z 2710/2806 15014G24KT P6SM OVC010
     FM271500 19015G25KT P6SM FEW020 SCT080
     FM271900 20020G30KT P6SM VCTS BKN080CB
     FM280100 34012KT P6SM SCT080=

USA.gov is the U.S. government's official web portal to all federal, state and local government web resources and services.